sensor_id;sensor_type;location;lat;lon;timestamp;temperature;humidity
33715;DHT22;20043;50.998;4.754;2023-06-10T00:00:50;23.20;99.90
33715;DHT22;20043;50.998;4.754;2023-06-10T00:03:16;23.20;99.90
33715;DHT22;20043;50.998;4.754;2023-06-10T00:05:43;23.10;99.90
33715;DHT22;20043;50.998;4.754;2023-06-10T00:08:08;23.20;99.90
33715;DHT22;20043;50.998;4.754;2023-06-10T00:10:38;23.30;99.90
33715;DHT22;20043;50.998;4.754;2023-06-10T00:13:04;23.20;99.90
33715;DHT22;20043;50.998;4.754;2023-06-10T00:15:31;23.30;99.90
33715;DHT22;20043;50.998;4.754;2023-06-10T00:17:56;23.20;99.90
33715;DHT22;20043;50.998;4.754;2023-06-10T00:20:22;23.20;99.90
33715;DHT22;20043;50.998;4.754;2023-06-10T00:22:51;23.20;99.90
33715;DHT22;20043;50.998;4.754;2023-06-10T00:25:17;23.30;99.90
33715;DHT22;20043;50.998;4.754;2023-06-10T00:27:43;23.40;99.90
33715;DHT22;20043;50.998;4.754;2023-06-10T00:30:09;23.20;99.90
33715;DHT22;20043;50.998;4.754;2023-06-10T00:32:36;23.10;99.90
33715;DHT22;20043;50.998;4.754;2023-06-10T00:35:03;23.10;99.90
33715;DHT22;20043;50.998;4.754;2023-06-10T00:37:29;23.00;99.90
33715;DHT22;20043;50.998;4.754;2023-06-10T00:39:55;23.10;99.90
33715;DHT22;20043;50.998;4.754;2023-06-10T00:42:21;23.00;99.90
33715;DHT22;20043;50.998;4.754;2023-06-10T00:44:50;23.00;99.90
33715;DHT22;20043;50.998;4.754;2023-06-10T00:47:16;23.00;99.90
33715;DHT22;20043;50.998;4.754;2023-06-10T00:49:42;22.90;99.90
33715;DHT22;20043;50.998;4.754;2023-06-10T00:52:08;22.80;99.90
33715;DHT22;20043;50.998;4.754;2023-06-10T00:54:34;22.80;99.90
33715;DHT22;20043;50.998;4.754;2023-06-10T00:57:03;22.90;99.90
33715;DHT22;20043;50.998;4.754;2023-06-10T00:59:29;22.80;99.90
33715;DHT22;20043;50.998;4.754;2023-06-10T01:01:56;22.80;99.90
33715;DHT22;20043;50.998;4.754;2023-06-10T01:04:22;22.80;99.90
33715;DHT22;20043;50.998;4.754;2023-06-10T01:07:17;22.80;99.90
33715;DHT22;20043;50.998;4.754;2023-06-10T01:12:46;22.50;99.90
33715;DHT22;20043;50.998;4.754;2023-06-10T01:15:16;22.50;99.90
33715;DHT22;20043;50.998;4.754;2023-06-10T01:20:21;22.60;99.90
33715;DHT22;20043;50.998;4.754;2023-06-10T01:22:46;22.50;99.90
33715;DHT22;20043;50.998;4.754;2023-06-10T01:25:13;22.40;99.90
33715;DHT22;20043;50.998;4.754;2023-06-10T01:27:40;22.40;99.90
33715;DHT22;20043;50.998;4.754;2023-06-10T01:30:18;22.50;99.90
33715;DHT22;20043;50.998;4.754;2023-06-10T01:32:48;22.40;99.90
33715;DHT22;20043;50.998;4.754;2023-06-10T01:35:17;22.30;99.90
33715;DHT22;20043;50.998;4.754;2023-06-10T01:37:45;22.10;99.90
33715;DHT22;20043;50.998;4.754;2023-06-10T01:40:12;22.20;99.90
33715;DHT22;20043;50.998;4.754;2023-06-10T01:42:38;22.00;99.90
33715;DHT22;20043;50.998;4.754;2023-06-10T01:45:05;22.10;99.90
33715;DHT22;20043;50.998;4.754;2023-06-10T01:47:30;22.10;99.90
33715;DHT22;20043;50.998;4.754;2023-06-10T01:49:57;22.10;99.90
33715;DHT22;20043;50.998;4.754;2023-06-10T01:52:22;22.00;99.90
33715;DHT22;20043;50.998;4.754;2023-06-10T01:54:48;21.80;99.90
33715;DHT22;20043;50.998;4.754;2023-06-10T01:57:14;21.80;99.90
33715;DHT22;20043;50.998;4.754;2023-06-10T01:59:39;21.90;99.90
33715;DHT22;20043;50.998;4.754;2023-06-10T02:02:05;22.00;99.90
33715;DHT22;20043;50.998;4.754;2023-06-10T02:04:31;21.90;99.90
33715;DHT22;20043;50.998;4.754;2023-06-10T02:06:56;21.80;99.90
33715;DHT22;20043;50.998;4.754;2023-06-10T02:09:22;21.80;99.90
33715;DHT22;20043;50.998;4.754;2023-06-10T02:11:48;21.80;99.90
33715;DHT22;20043;50.998;4.754;2023-06-10T02:14:14;21.80;99.90
33715;DHT22;20043;50.998;4.754;2023-06-10T02:16:40;21.70;99.90
33715;DHT22;20043;50.998;4.754;2023-06-10T02:19:06;21.70;99.90
33715;DHT22;20043;50.998;4.754;2023-06-10T02:21:32;21.70;99.90
33715;DHT22;20043;50.998;4.754;2023-06-10T02:24:00;21.60;99.90
33715;DHT22;20043;50.998;4.754;2023-06-10T02:26:25;21.70;99.90
33715;DHT22;20043;50.998;4.754;2023-06-10T02:28:51;21.60;99.90
33715;DHT22;20043;50.998;4.754;2023-06-10T02:31:17;21.50;99.90
33715;DHT22;20043;50.998;4.754;2023-06-10T02:33:43;21.40;99.90
33715;DHT22;20043;50.998;4.754;2023-06-10T02:36:10;21.50;99.90
33715;DHT22;20043;50.998;4.754;2023-06-10T02:38:39;21.40;99.90
33715;DHT22;20043;50.998;4.754;2023-06-10T02:41:05;21.40;99.90
33715;DHT22;20043;50.998;4.754;2023-06-10T02:43:31;21.40;99.90
33715;DHT22;20043;50.998;4.754;2023-06-10T02:45:56;21.40;99.90
33715;DHT22;20043;50.998;4.754;2023-06-10T02:48:24;21.50;99.90
33715;DHT22;20043;50.998;4.754;2023-06-10T02:50:50;21.60;99.90
33715;DHT22;20043;50.998;4.754;2023-06-10T02:53:15;21.40;99.90
33715;DHT22;20043;50.998;4.754;2023-06-10T02:55:41;21.30;99.90
33715;DHT22;20043;50.998;4.754;2023-06-10T02:58:08;21.30;99.90
33715;DHT22;20043;50.998;4.754;2023-06-10T03:00:33;21.30;99.90
33715;DHT22;20043;50.998;4.754;2023-06-10T03:02:59;21.40;99.90
33715;DHT22;20043;50.998;4.754;2023-06-10T03:05:29;21.20;99.90
33715;DHT22;20043;50.998;4.754;2023-06-10T03:07:54;21.10;99.90
33715;DHT22;20043;50.998;4.754;2023-06-10T03:10:20;21.10;99.90
33715;DHT22;20043;50.998;4.754;2023-06-10T03:12:46;21.30;99.90
33715;DHT22;20043;50.998;4.754;2023-06-10T03:15:11;21.10;99.90
33715;DHT22;20043;50.998;4.754;2023-06-10T03:17:37;21.20;99.90
33715;DHT22;20043;50.998;4.754;2023-06-10T03:20:03;21.10;99.90
33715;DHT22;20043;50.998;4.754;2023-06-10T03:22:35;21.10;99.90
33715;DHT22;20043;50.998;4.754;2023-06-10T03:25:01;21.10;99.90
33715;DHT22;20043;50.998;4.754;2023-06-10T03:27:27;21.10;99.90
33715;DHT22;20043;50.998;4.754;2023-06-10T03:29:54;21.10;99.90
33715;DHT22;20043;50.998;4.754;2023-06-10T03:32:20;21.00;99.90
33715;DHT22;20043;50.998;4.754;2023-06-10T03:34:45;21.10;99.90
33715;DHT22;20043;50.998;4.754;2023-06-10T03:37:13;21.00;99.90
33715;DHT22;20043;50.998;4.754;2023-06-10T03:39:38;20.90;99.90
33715;DHT22;20043;50.998;4.754;2023-06-10T03:42:04;20.80;99.90
33715;DHT22;20043;50.998;4.754;2023-06-10T03:44:30;20.60;99.90
33715;DHT22;20043;50.998;4.754;2023-06-10T03:46:56;20.60;99.90
33715;DHT22;20043;50.998;4.754;2023-06-10T03:49:22;20.50;99.90
33715;DHT22;20043;50.998;4.754;2023-06-10T03:51:51;20.50;99.90
33715;DHT22;20043;50.998;4.754;2023-06-10T03:54:16;20.40;99.90
33715;DHT22;20043;50.998;4.754;2023-06-10T03:56:42;20.40;99.90
33715;DHT22;20043;50.998;4.754;2023-06-10T03:59:07;20.30;99.90
33715;DHT22;20043;50.998;4.754;2023-06-10T04:01:33;20.40;99.90
33715;DHT22;20043;50.998;4.754;2023-06-10T04:04:00;20.40;99.90
33715;DHT22;20043;50.998;4.754;2023-06-10T04:06:26;20.40;99.90
33715;DHT22;20043;50.998;4.754;2023-06-10T04:08:54;20.40;99.90
33715;DHT22;20043;50.998;4.754;2023-06-10T04:11:21;20.20;99.90
33715;DHT22;20043;50.998;4.754;2023-06-10T04:13:46;20.40;99.90
33715;DHT22;20043;50.998;4.754;2023-06-10T04:16:13;20.60;99.90
33715;DHT22;20043;50.998;4.754;2023-06-10T04:18:39;20.90;99.90
33715;DHT22;20043;50.998;4.754;2023-06-10T04:21:06;21.10;99.90
33715;DHT22;20043;50.998;4.754;2023-06-10T04:23:31;21.20;99.90
33715;DHT22;20043;50.998;4.754;2023-06-10T04:25:57;21.30;99.90
33715;DHT22;20043;50.998;4.754;2023-06-10T04:28:24;21.50;99.90
33715;DHT22;20043;50.998;4.754;2023-06-10T04:30:50;21.80;99.90
33715;DHT22;20043;50.998;4.754;2023-06-10T04:33:16;22.00;99.90
33715;DHT22;20043;50.998;4.754;2023-06-10T04:35:41;22.10;99.90
33715;DHT22;20043;50.998;4.754;2023-06-10T04:38:07;22.30;99.90
33715;DHT22;20043;50.998;4.754;2023-06-10T04:40:33;22.40;99.90
33715;DHT22;20043;50.998;4.754;2023-06-10T04:42:59;22.60;99.90
33715;DHT22;20043;50.998;4.754;2023-06-10T04:45:24;22.90;99.90
33715;DHT22;20043;50.998;4.754;2023-06-10T04:47:50;23.20;99.90
33715;DHT22;20043;50.998;4.754;2023-06-10T04:50:17;23.20;99.90
33715;DHT22;20043;50.998;4.754;2023-06-10T04:52:42;22.90;99.90
33715;DHT22;20043;50.998;4.754;2023-06-10T04:55:08;23.00;99.90
33715;DHT22;20043;50.998;4.754;2023-06-10T04:57:34;23.40;99.90
33715;DHT22;20043;50.998;4.754;2023-06-10T04:59:59;23.70;99.90
33715;DHT22;20043;50.998;4.754;2023-06-10T05:02:25;24.00;99.90
33715;DHT22;20043;50.998;4.754;2023-06-10T05:04:51;24.30;99.90
33715;DHT22;20043;50.998;4.754;2023-06-10T05:07:16;24.50;99.90
33715;DHT22;20043;50.998;4.754;2023-06-10T05:09:42;24.90;99.90
33715;DHT22;20043;50.998;4.754;2023-06-10T05:12:08;25.30;99.90
33715;DHT22;20043;50.998;4.754;2023-06-10T05:14:34;24.90;99.90
33715;DHT22;20043;50.998;4.754;2023-06-10T05:16:59;25.10;99.90
33715;DHT22;20043;50.998;4.754;2023-06-10T05:19:25;25.40;99.90
33715;DHT22;20043;50.998;4.754;2023-06-10T05:21:50;24.90;99.90
33715;DHT22;20043;50.998;4.754;2023-06-10T05:24:16;25.30;99.90
33715;DHT22;20043;50.998;4.754;2023-06-10T05:26:42;25.60;99.90
33715;DHT22;20043;50.998;4.754;2023-06-10T05:29:08;25.60;99.90
33715;DHT22;20043;50.998;4.754;2023-06-10T05:31:34;26.00;99.90
33715;DHT22;20043;50.998;4.754;2023-06-10T05:34:00;26.00;99.90
33715;DHT22;20043;50.998;4.754;2023-06-10T05:36:25;26.10;99.90
33715;DHT22;20043;50.998;4.754;2023-06-10T05:38:52;26.20;99.90
33715;DHT22;20043;50.998;4.754;2023-06-10T05:41:17;26.10;99.90
33715;DHT22;20043;50.998;4.754;2023-06-10T05:43:43;25.80;99.90
33715;DHT22;20043;50.998;4.754;2023-06-10T05:46:09;26.00;99.90
33715;DHT22;20043;50.998;4.754;2023-06-10T05:48:34;25.40;99.90
33715;DHT22;20043;50.998;4.754;2023-06-10T05:51:00;25.40;99.90
33715;DHT22;20043;50.998;4.754;2023-06-10T05:53:26;25.50;99.90
33715;DHT22;20043;50.998;4.754;2023-06-10T05:55:52;25.50;99.90
33715;DHT22;20043;50.998;4.754;2023-06-10T05:58:19;25.40;99.90
33715;DHT22;20043;50.998;4.754;2023-06-10T06:00:45;25.40;99.90
33715;DHT22;20043;50.998;4.754;2023-06-10T06:03:11;25.00;99.90
33715;DHT22;20043;50.998;4.754;2023-06-10T06:05:37;24.90;99.90
33715;DHT22;20043;50.998;4.754;2023-06-10T06:08:07;25.10;99.90
33715;DHT22;20043;50.998;4.754;2023-06-10T06:10:33;25.20;99.90
33715;DHT22;20043;50.998;4.754;2023-06-10T06:13:00;25.30;99.90
33715;DHT22;20043;50.998;4.754;2023-06-10T06:15:32;25.40;99.90
33715;DHT22;20043;50.998;4.754;2023-06-10T06:17:57;25.20;99.90
33715;DHT22;20043;50.998;4.754;2023-06-10T06:20:23;24.70;99.90
33715;DHT22;20043;50.998;4.754;2023-06-10T06:22:49;24.70;99.90
33715;DHT22;20043;50.998;4.754;2023-06-10T06:25:14;24.70;99.90
33715;DHT22;20043;50.998;4.754;2023-06-10T06:27:40;24.90;99.90
33715;DHT22;20043;50.998;4.754;2023-06-10T06:30:06;25.20;99.90
33715;DHT22;20043;50.998;4.754;2023-06-10T06:32:32;25.40;99.90
33715;DHT22;20043;50.998;4.754;2023-06-10T06:34:58;25.20;99.90
33715;DHT22;20043;50.998;4.754;2023-06-10T06:37:25;25.40;99.90
33715;DHT22;20043;50.998;4.754;2023-06-10T06:39:54;25.40;99.90
33715;DHT22;20043;50.998;4.754;2023-06-10T06:42:20;25.40;99.90
33715;DHT22;20043;50.998;4.754;2023-06-10T06:44:46;25.50;99.90
33715;DHT22;20043;50.998;4.754;2023-06-10T06:47:13;25.60;99.90
33715;DHT22;20043;50.998;4.754;2023-06-10T06:49:38;25.60;99.90
33715;DHT22;20043;50.998;4.754;2023-06-10T06:52:04;25.70;99.90
33715;DHT22;20043;50.998;4.754;2023-06-10T06:54:30;25.80;99.90
33715;DHT22;20043;50.998;4.754;2023-06-10T06:56:56;25.60;99.90
33715;DHT22;20043;50.998;4.754;2023-06-10T06:59:22;25.70;99.90
33715;DHT22;20043;50.998;4.754;2023-06-10T07:01:48;25.90;99.90
33715;DHT22;20043;50.998;4.754;2023-06-10T07:04:15;26.10;99.90
33715;DHT22;20043;50.998;4.754;2023-06-10T07:06:40;26.20;99.90
33715;DHT22;20043;50.998;4.754;2023-06-10T07:09:07;26.20;99.90
33715;DHT22;20043;50.998;4.754;2023-06-10T07:11:33;26.40;99.90
33715;DHT22;20043;50.998;4.754;2023-06-10T07:13:59;26.60;99.90
33715;DHT22;20043;50.998;4.754;2023-06-10T07:16:25;26.80;99.90
33715;DHT22;20043;50.998;4.754;2023-06-10T07:18:51;26.90;99.90
33715;DHT22;20043;50.998;4.754;2023-06-10T07:21:17;27.10;99.90
33715;DHT22;20043;50.998;4.754;2023-06-10T07:23:43;27.00;99.90
33715;DHT22;20043;50.998;4.754;2023-06-10T07:26:10;27.20;99.90
33715;DHT22;20043;50.998;4.754;2023-06-10T07:28:37;27.30;99.90
33715;DHT22;20043;50.998;4.754;2023-06-10T07:31:03;27.10;99.90
33715;DHT22;20043;50.998;4.754;2023-06-10T07:33:28;27.00;99.90
33715;DHT22;20043;50.998;4.754;2023-06-10T07:35:54;26.70;99.90
33715;DHT22;20043;50.998;4.754;2023-06-10T07:38:20;26.70;99.90
33715;DHT22;20043;50.998;4.754;2023-06-10T07:40:46;27.00;99.90
33715;DHT22;20043;50.998;4.754;2023-06-10T07:43:12;27.10;99.90
33715;DHT22;20043;50.998;4.754;2023-06-10T07:45:39;27.20;99.90
33715;DHT22;20043;50.998;4.754;2023-06-10T07:48:05;27.10;99.90
33715;DHT22;20043;50.998;4.754;2023-06-10T07:50:31;27.10;99.90
33715;DHT22;20043;50.998;4.754;2023-06-10T07:52:56;27.30;99.90
33715;DHT22;20043;50.998;4.754;2023-06-10T07:55:22;27.40;99.90
33715;DHT22;20043;50.998;4.754;2023-06-10T07:57:47;27.40;99.90
33715;DHT22;20043;50.998;4.754;2023-06-10T08:00:13;27.50;99.90
33715;DHT22;20043;50.998;4.754;2023-06-10T08:02:39;27.70;99.90
33715;DHT22;20043;50.998;4.754;2023-06-10T08:05:05;28.00;99.90
33715;DHT22;20043;50.998;4.754;2023-06-10T08:07:30;28.20;99.90
33715;DHT22;20043;50.998;4.754;2023-06-10T08:09:57;28.30;99.90
33715;DHT22;20043;50.998;4.754;2023-06-10T08:12:22;28.10;99.90
33715;DHT22;20043;50.998;4.754;2023-06-10T08:14:48;28.10;99.90
33715;DHT22;20043;50.998;4.754;2023-06-10T08:17:14;28.30;99.90
33715;DHT22;20043;50.998;4.754;2023-06-10T08:19:39;28.70;99.90
33715;DHT22;20043;50.998;4.754;2023-06-10T08:22:05;28.90;99.90
33715;DHT22;20043;50.998;4.754;2023-06-10T08:24:30;28.60;99.90
33715;DHT22;20043;50.998;4.754;2023-06-10T08:26:56;28.80;99.90
33715;DHT22;20043;50.998;4.754;2023-06-10T08:29:23;29.00;99.90
33715;DHT22;20043;50.998;4.754;2023-06-10T08:31:48;29.10;99.90
33715;DHT22;20043;50.998;4.754;2023-06-10T08:34:21;29.20;99.90
33715;DHT22;20043;50.998;4.754;2023-06-10T08:36:46;29.30;99.90
33715;DHT22;20043;50.998;4.754;2023-06-10T08:39:12;29.10;99.90
33715;DHT22;20043;50.998;4.754;2023-06-10T08:41:43;29.30;99.90
33715;DHT22;20043;50.998;4.754;2023-06-10T08:44:15;29.40;99.90
33715;DHT22;20043;50.998;4.754;2023-06-10T08:46:45;29.60;99.90
33715;DHT22;20043;50.998;4.754;2023-06-10T08:49:15;29.80;99.90
33715;DHT22;20043;50.998;4.754;2023-06-10T08:51:42;29.50;99.50
33715;DHT22;20043;50.998;4.754;2023-06-10T08:54:24;29.80;99.90
33715;DHT22;20043;50.998;4.754;2023-06-10T08:56:51;29.90;99.90
33715;DHT22;20043;50.998;4.754;2023-06-10T08:59:20;30.10;99.90
33715;DHT22;20043;50.998;4.754;2023-06-10T09:01:46;30.20;99.70
33715;DHT22;20043;50.998;4.754;2023-06-10T09:04:12;30.20;99.70
33715;DHT22;20043;50.998;4.754;2023-06-10T09:06:38;30.10;99.30
33715;DHT22;20043;50.998;4.754;2023-06-10T09:09:06;29.90;99.40
33715;DHT22;20043;50.998;4.754;2023-06-10T09:11:32;30.10;99.30
33715;DHT22;20043;50.998;4.754;2023-06-10T09:13:58;30.40;98.50
33715;DHT22;20043;50.998;4.754;2023-06-10T09:16:24;30.50;98.20
33715;DHT22;20043;50.998;4.754;2023-06-10T09:18:50;30.50;97.90
33715;DHT22;20043;50.998;4.754;2023-06-10T09:21:22;30.50;98.70
33715;DHT22;20043;50.998;4.754;2023-06-10T09:23:48;30.70;97.80
33715;DHT22;20043;50.998;4.754;2023-06-10T09:26:14;30.60;97.60
33715;DHT22;20043;50.998;4.754;2023-06-10T09:28:43;30.90;96.70
33715;DHT22;20043;50.998;4.754;2023-06-10T09:31:09;31.00;97.70
33715;DHT22;20043;50.998;4.754;2023-06-10T09:33:39;31.00;96.10
33715;DHT22;20043;50.998;4.754;2023-06-10T09:36:05;30.80;96.70
33715;DHT22;20043;50.998;4.754;2023-06-10T09:38:32;30.90;96.80
33715;DHT22;20043;50.998;4.754;2023-06-10T09:40:58;31.00;96.40
33715;DHT22;20043;50.998;4.754;2023-06-10T09:43:47;30.80;95.60
33715;DHT22;20043;50.998;4.754;2023-06-10T09:46:18;30.50;95.60
33715;DHT22;20043;50.998;4.754;2023-06-10T09:48:46;30.50;94.30
33715;DHT22;20043;50.998;4.754;2023-06-10T09:51:13;30.60;95.30
33715;DHT22;20043;50.998;4.754;2023-06-10T09:53:39;30.80;95.10
33715;DHT22;20043;50.998;4.754;2023-06-10T09:56:04;31.10;95.50
33715;DHT22;20043;50.998;4.754;2023-06-10T09:58:35;31.20;93.10
33715;DHT22;20043;50.998;4.754;2023-06-10T10:01:05;31.00;93.50
33715;DHT22;20043;50.998;4.754;2023-06-10T10:03:31;31.20;93.70
33715;DHT22;20043;50.998;4.754;2023-06-10T10:06:00;31.40;92.90
33715;DHT22;20043;50.998;4.754;2023-06-10T10:08:26;31.70;92.80
33715;DHT22;20043;50.998;4.754;2023-06-10T10:10:51;31.60;91.50
33715;DHT22;20043;50.998;4.754;2023-06-10T10:13:17;31.80;92.30
33715;DHT22;20043;50.998;4.754;2023-06-10T10:15:44;31.60;88.10
33715;DHT22;20043;50.998;4.754;2023-06-10T10:18:11;31.30;91.00
33715;DHT22;20043;50.998;4.754;2023-06-10T10:20:47;31.20;91.00
33715;DHT22;20043;50.998;4.754;2023-06-10T10:23:29;31.50;92.60
33715;DHT22;20043;50.998;4.754;2023-06-10T10:25:57;31.80;91.70
33715;DHT22;20043;50.998;4.754;2023-06-10T10:28:34;31.90;90.90
33715;DHT22;20043;50.998;4.754;2023-06-10T10:31:07;32.00;90.70
33715;DHT22;20043;50.998;4.754;2023-06-10T10:33:58;31.80;87.00
33715;DHT22;20043;50.998;4.754;2023-06-10T10:36:24;31.70;89.00
33715;DHT22;20043;50.998;4.754;2023-06-10T10:38:50;31.80;88.50
33715;DHT22;20043;50.998;4.754;2023-06-10T10:41:17;32.00;87.50
33715;DHT22;20043;50.998;4.754;2023-06-10T10:43:44;32.00;86.70
33715;DHT22;20043;50.998;4.754;2023-06-10T10:46:16;31.80;88.30
33715;DHT22;20043;50.998;4.754;2023-06-10T10:48:43;31.80;88.90
33715;DHT22;20043;50.998;4.754;2023-06-10T10:51:10;32.20;86.40
33715;DHT22;20043;50.998;4.754;2023-06-10T10:53:39;32.40;87.60
33715;DHT22;20043;50.998;4.754;2023-06-10T10:56:05;32.40;86.30
33715;DHT22;20043;50.998;4.754;2023-06-10T10:58:32;32.40;84.60
33715;DHT22;20043;50.998;4.754;2023-06-10T11:00:58;32.50;84.80
33715;DHT22;20043;50.998;4.754;2023-06-10T11:03:28;32.60;85.40
33715;DHT22;20043;50.998;4.754;2023-06-10T11:05:57;32.70;83.80
33715;DHT22;20043;50.998;4.754;2023-06-10T11:11:21;32.60;82.20
33715;DHT22;20043;50.998;4.754;2023-06-10T11:14:07;32.60;85.40
33715;DHT22;20043;50.998;4.754;2023-06-10T11:16:42;32.80;82.70
33715;DHT22;20043;50.998;4.754;2023-06-10T11:19:08;32.40;80.30
33715;DHT22;20043;50.998;4.754;2023-06-10T11:21:58;32.30;81.40
33715;DHT22;20043;50.998;4.754;2023-06-10T11:24:26;32.20;79.70
33715;DHT22;20043;50.998;4.754;2023-06-10T11:26:52;32.10;80.10
33715;DHT22;20043;50.998;4.754;2023-06-10T11:29:18;31.90;80.10
33715;DHT22;20043;50.998;4.754;2023-06-10T11:31:49;31.70;81.90
33715;DHT22;20043;50.998;4.754;2023-06-10T11:34:17;31.70;84.90
33715;DHT22;20043;50.998;4.754;2023-06-10T11:36:46;31.70;81.20
33715;DHT22;20043;50.998;4.754;2023-06-10T11:39:12;31.40;79.70
33715;DHT22;20043;50.998;4.754;2023-06-10T11:41:39;31.50;83.80
33715;DHT22;20043;50.998;4.754;2023-06-10T11:44:09;31.80;82.00
33715;DHT22;20043;50.998;4.754;2023-06-10T11:46:35;32.10;81.00
33715;DHT22;20043;50.998;4.754;2023-06-10T11:49:01;32.40;81.90
33715;DHT22;20043;50.998;4.754;2023-06-10T11:51:36;32.30;79.10
33715;DHT22;20043;50.998;4.754;2023-06-10T11:54:02;32.30;77.10
33715;DHT22;20043;50.998;4.754;2023-06-10T11:56:30;32.30;78.60
33715;DHT22;20043;50.998;4.754;2023-06-10T11:59:06;32.20;78.40
33715;DHT22;20043;50.998;4.754;2023-06-10T12:01:33;32.20;75.90
33715;DHT22;20043;50.998;4.754;2023-06-10T12:04:07;32.30;76.40
33715;DHT22;20043;50.998;4.754;2023-06-10T12:06:50;32.30;78.00
33715;DHT22;20043;50.998;4.754;2023-06-10T12:09:27;32.30;77.00
33715;DHT22;20043;50.998;4.754;2023-06-10T12:12:05;32.70;80.90
33715;DHT22;20043;50.998;4.754;2023-06-10T12:14:56;32.80;76.10
33715;DHT22;20043;50.998;4.754;2023-06-10T12:17:42;32.80;74.60
33715;DHT22;20043;50.998;4.754;2023-06-10T12:20:24;32.90;78.10
33715;DHT22;20043;50.998;4.754;2023-06-10T12:22:49;32.90;75.90
33715;DHT22;20043;50.998;4.754;2023-06-10T12:25:15;32.60;74.60
33715;DHT22;20043;50.998;4.754;2023-06-10T12:27:53;32.60;74.00
33715;DHT22;20043;50.998;4.754;2023-06-10T12:30:20;32.60;73.90
33715;DHT22;20043;50.998;4.754;2023-06-10T12:32:46;32.40;74.00
33715;DHT22;20043;50.998;4.754;2023-06-10T12:35:16;32.50;75.10
33715;DHT22;20043;50.998;4.754;2023-06-10T12:37:53;32.50;76.00
33715;DHT22;20043;50.998;4.754;2023-06-10T12:40:26;32.70;75.00
33715;DHT22;20043;50.998;4.754;2023-06-10T12:42:52;32.70;73.60
33715;DHT22;20043;50.998;4.754;2023-06-10T12:45:26;32.50;75.10
33715;DHT22;20043;50.998;4.754;2023-06-10T12:48:24;32.70;74.70
33715;DHT22;20043;50.998;4.754;2023-06-10T12:50:55;32.60;74.50
33715;DHT22;20043;50.998;4.754;2023-06-10T12:53:22;32.60;75.10
33715;DHT22;20043;50.998;4.754;2023-06-10T12:55:53;32.40;75.70
33715;DHT22;20043;50.998;4.754;2023-06-10T12:58:20;32.50;74.00
33715;DHT22;20043;50.998;4.754;2023-06-10T13:00:46;32.70;74.90
33715;DHT22;20043;50.998;4.754;2023-06-10T13:03:14;32.80;76.40
33715;DHT22;20043;50.998;4.754;2023-06-10T13:05:39;32.60;75.10
33715;DHT22;20043;50.998;4.754;2023-06-10T13:08:06;32.60;72.60
33715;DHT22;20043;50.998;4.754;2023-06-10T13:10:33;32.40;75.80
33715;DHT22;20043;50.998;4.754;2023-06-10T13:13:00;32.30;73.50
33715;DHT22;20043;50.998;4.754;2023-06-10T13:15:26;32.40;73.30
33715;DHT22;20043;50.998;4.754;2023-06-10T13:17:52;32.60;73.90
33715;DHT22;20043;50.998;4.754;2023-06-10T13:20:18;32.50;73.00
33715;DHT22;20043;50.998;4.754;2023-06-10T13:22:44;32.50;71.90
33715;DHT22;20043;50.998;4.754;2023-06-10T13:25:10;32.50;71.60
33715;DHT22;20043;50.998;4.754;2023-06-10T13:27:36;32.40;69.70
33715;DHT22;20043;50.998;4.754;2023-06-10T13:30:07;32.50;72.50
33715;DHT22;20043;50.998;4.754;2023-06-10T13:32:33;32.70;69.10
33715;DHT22;20043;50.998;4.754;2023-06-10T13:34:59;32.80;72.00
33715;DHT22;20043;50.998;4.754;2023-06-10T13:37:24;32.80;70.90
33715;DHT22;20043;50.998;4.754;2023-06-10T13:39:51;32.50;72.10
33715;DHT22;20043;50.998;4.754;2023-06-10T13:42:17;32.50;71.30
33715;DHT22;20043;50.998;4.754;2023-06-10T13:44:43;32.30;71.20
33715;DHT22;20043;50.998;4.754;2023-06-10T13:47:09;32.50;72.60
33715;DHT22;20043;50.998;4.754;2023-06-10T13:49:34;32.40;71.80
33715;DHT22;20043;50.998;4.754;2023-06-10T13:52:00;32.10;70.50
33715;DHT22;20043;50.998;4.754;2023-06-10T13:54:26;32.10;70.90
33715;DHT22;20043;50.998;4.754;2023-06-10T13:56:52;32.40;74.30
33715;DHT22;20043;50.998;4.754;2023-06-10T13:59:19;32.50;72.60
33715;DHT22;20043;50.998;4.754;2023-06-10T14:01:45;32.60;71.00
33715;DHT22;20043;50.998;4.754;2023-06-10T14:04:11;32.70;71.80
33715;DHT22;20043;50.998;4.754;2023-06-10T14:06:37;32.60;70.40
33715;DHT22;20043;50.998;4.754;2023-06-10T14:09:03;32.70;70.40
33715;DHT22;20043;50.998;4.754;2023-06-10T14:11:28;32.50;69.50
33715;DHT22;20043;50.998;4.754;2023-06-10T14:13:54;32.50;68.60
33715;DHT22;20043;50.998;4.754;2023-06-10T14:16:21;32.60;69.50
33715;DHT22;20043;50.998;4.754;2023-06-10T14:18:47;32.60;70.20
33715;DHT22;20043;50.998;4.754;2023-06-10T14:21:13;32.70;68.50
33715;DHT22;20043;50.998;4.754;2023-06-10T14:23:39;32.60;69.30
33715;DHT22;20043;50.998;4.754;2023-06-10T14:26:04;32.70;70.80
33715;DHT22;20043;50.998;4.754;2023-06-10T14:28:32;32.70;70.00
33715;DHT22;20043;50.998;4.754;2023-06-10T14:30:58;32.90;69.30
33715;DHT22;20043;50.998;4.754;2023-06-10T14:33:23;33.10;68.30
33715;DHT22;20043;50.998;4.754;2023-06-10T14:35:49;33.20;66.90
33715;DHT22;20043;50.998;4.754;2023-06-10T14:38:15;33.30;68.50
33715;DHT22;20043;50.998;4.754;2023-06-10T14:40:40;33.30;69.50
33715;DHT22;20043;50.998;4.754;2023-06-10T14:43:06;33.40;68.00
33715;DHT22;20043;50.998;4.754;2023-06-10T14:45:39;33.30;67.40
33715;DHT22;20043;50.998;4.754;2023-06-10T14:48:06;33.40;66.60
33715;DHT22;20043;50.998;4.754;2023-06-10T14:50:32;33.30;65.90
33715;DHT22;20043;50.998;4.754;2023-06-10T14:52:58;33.50;66.90
33715;DHT22;20043;50.998;4.754;2023-06-10T14:55:24;33.80;68.10
33715;DHT22;20043;50.998;4.754;2023-06-10T14:57:50;33.80;67.00
33715;DHT22;20043;50.998;4.754;2023-06-10T15:00:16;33.50;65.50
33715;DHT22;20043;50.998;4.754;2023-06-10T15:02:42;33.30;65.50
33715;DHT22;20043;50.998;4.754;2023-06-10T15:05:08;33.20;64.70
33715;DHT22;20043;50.998;4.754;2023-06-10T15:07:34;32.80;63.80
33715;DHT22;20043;50.998;4.754;2023-06-10T15:09:59;32.80;63.60
33715;DHT22;20043;50.998;4.754;2023-06-10T15:12:25;32.90;66.30
33715;DHT22;20043;50.998;4.754;2023-06-10T15:14:51;33.00;63.20
33715;DHT22;20043;50.998;4.754;2023-06-10T15:17:16;33.00;65.40
33715;DHT22;20043;50.998;4.754;2023-06-10T15:19:42;33.00;65.30
33715;DHT22;20043;50.998;4.754;2023-06-10T15:22:07;33.00;65.80
33715;DHT22;20043;50.998;4.754;2023-06-10T15:24:33;33.00;66.60
33715;DHT22;20043;50.998;4.754;2023-06-10T15:26:59;33.20;67.50
33715;DHT22;20043;50.998;4.754;2023-06-10T15:29:24;33.30;66.70
33715;DHT22;20043;50.998;4.754;2023-06-10T15:31:50;33.30;67.80
33715;DHT22;20043;50.998;4.754;2023-06-10T15:34:15;33.30;67.00
33715;DHT22;20043;50.998;4.754;2023-06-10T15:36:41;33.40;66.40
33715;DHT22;20043;50.998;4.754;2023-06-10T15:39:07;33.40;67.10